Diberville, Mississippi
Current Conditions -  °F | °C
As of 5:58 AM on Friday 28 Nov 2014 (Local Time) from KBIX Reporting Station
Clear Clear  
Wind Chill: 30°   Ceiling: Unl
Heat Index: 35°   Visibility: 10mi
Dew Point: 31°   Wind: 6mph
Humidity: 84%   Direction: 40°NE
Pressure: 30.43"   Gusts: NA
Location:  30.44°N, 88.9°W
Report Text: KBIX 281158Z AUTO 04005KT 10SM CLR 02/M01 A3043 RMK AO2 SLP308 T00161008 10056 20015 50007
Loading
Personal Weather Stations






























Interactive Weather Map New forecast layout! Learn more

10-Day Weather Forecast

Advertisements
Track Severe Weather on mobile